sensor_id;sensor_type;location;lat;lon;timestamp;P1;durP1;ratioP1;P2;durP2;ratioP2
16468;SDS011;8345;50.902;6.956;2023-04-23T00:01:13;12.93;;;11.80;;
16468;SDS011;8345;50.902;6.956;2023-04-23T00:03:42;13.07;;;11.87;;
16468;SDS011;8345;50.902;6.956;2023-04-23T00:06:09;13.80;;;12.50;;
16468;SDS011;8345;50.902;6.956;2023-04-23T00:08:38;13.47;;;12.10;;
16468;SDS011;8345;50.902;6.956;2023-04-23T00:11:05;13.77;;;12.47;;
16468;SDS011;8345;50.902;6.956;2023-04-23T00:13:33;13.90;;;12.60;;
16468;SDS011;8345;50.902;6.956;2023-04-23T00:16:02;13.67;;;12.47;;
16468;SDS011;8345;50.902;6.956;2023-04-23T00:18:30;14.30;;;13.00;;
16468;SDS011;8345;50.902;6.956;2023-04-23T00:20:57;14.50;;;13.17;;
16468;SDS011;8345;50.902;6.956;2023-04-23T00:23:24;12.57;;;11.47;;
16468;SDS011;8345;50.902;6.956;2023-04-23T00:25:51;14.50;;;13.17;;
16468;SDS011;8345;50.902;6.956;2023-04-23T00:28:18;13.33;;;12.13;;
16468;SDS011;8345;50.902;6.956;2023-04-23T00:30:46;16.67;;;13.10;;
16468;SDS011;8345;50.902;6.956;2023-04-23T00:33:14;13.50;;;12.10;;
16468;SDS011;8345;50.902;6.956;2023-04-23T00:35:41;13.17;;;11.90;;
16468;SDS011;8345;50.902;6.956;2023-04-23T00:38:09;14.17;;;12.87;;
16468;SDS011;8345;50.902;6.956;2023-04-23T00:40:36;12.47;;;11.37;;
16468;SDS011;8345;50.902;6.956;2023-04-23T00:43:03;13.67;;;12.47;;
16468;SDS011;8345;50.902;6.956;2023-04-23T00:45:31;13.43;;;12.13;;
16468;SDS011;8345;50.902;6.956;2023-04-23T00:47:58;13.07;;;11.77;;
16468;SDS011;8345;50.902;6.956;2023-04-23T00:50:27;11.77;;;10.77;;
16468;SDS011;8345;50.902;6.956;2023-04-23T00:52:54;11.93;;;10.73;;
16468;SDS011;8345;50.902;6.956;2023-04-23T00:55:21;12.00;;;10.90;;
16468;SDS011;8345;50.902;6.956;2023-04-23T00:57:49;12.37;;;11.17;;
16468;SDS011;8345;50.902;6.956;2023-04-23T01:00:16;11.63;;;10.60;;
16468;SDS011;8345;50.902;6.956;2023-04-23T01:02:44;11.80;;;10.70;;
16468;SDS011;8345;50.902;6.956;2023-04-23T01:05:13;11.33;;;10.23;;
16468;SDS011;8345;50.902;6.956;2023-04-23T01:07:43;10.70;;;9.73;;
16468;SDS011;8345;50.902;6.956;2023-04-23T01:10:11;12.10;;;11.00;;
16468;SDS011;8345;50.902;6.956;2023-04-23T01:12:38;11.73;;;10.63;;
16468;SDS011;8345;50.902;6.956;2023-04-23T01:15:06;13.17;;;11.87;;
16468;SDS011;8345;50.902;6.956;2023-04-23T01:17:33;11.93;;;10.73;;
16468;SDS011;8345;50.902;6.956;2023-04-23T01:20:01;11.90;;;10.77;;
16468;SDS011;8345;50.902;6.956;2023-04-23T01:22:31;12.77;;;11.60;;
16468;SDS011;8345;50.902;6.956;2023-04-23T01:24:58;12.97;;;11.77;;
16468;SDS011;8345;50.902;6.956;2023-04-23T01:27:26;13.40;;;12.10;;
16468;SDS011;8345;50.902;6.956;2023-04-23T01:29:53;12.50;;;11.37;;
16468;SDS011;8345;50.902;6.956;2023-04-23T01:32:20;11.97;;;10.83;;
16468;SDS011;8345;50.902;6.956;2023-04-23T01:34:48;13.13;;;11.67;;
16468;SDS011;8345;50.902;6.956;2023-04-23T01:37:15;12.07;;;10.93;;
16468;SDS011;8345;50.902;6.956;2023-04-23T01:39:44;12.07;;;10.97;;
16468;SDS011;8345;50.902;6.956;2023-04-23T01:42:11;11.83;;;10.70;;
16468;SDS011;8345;50.902;6.956;2023-04-23T01:44:38;11.97;;;10.87;;
16468;SDS011;8345;50.902;6.956;2023-04-23T01:47:06;12.73;;;11.53;;
16468;SDS011;8345;50.902;6.956;2023-04-23T01:49:33;13.03;;;11.83;;
16468;SDS011;8345;50.902;6.956;2023-04-23T01:52:00;12.97;;;11.60;;
16468;SDS011;8345;50.902;6.956;2023-04-23T01:54:28;13.00;;;11.70;;
16468;SDS011;8345;50.902;6.956;2023-04-23T01:56:56;13.40;;;12.13;;
16468;SDS011;8345;50.902;6.956;2023-04-23T01:59:24;14.40;;;13.00;;
16468;SDS011;8345;50.902;6.956;2023-04-23T02:01:51;13.53;;;12.33;;
16468;SDS011;8345;50.902;6.956;2023-04-23T02:04:18;14.97;;;13.67;;
16468;SDS011;8345;50.902;6.956;2023-04-23T02:06:46;13.70;;;12.40;;
16468;SDS011;8345;50.902;6.956;2023-04-23T02:09:14;13.93;;;12.63;;
16468;SDS011;8345;50.902;6.956;2023-04-23T02:11:41;15.37;;;13.97;;
16468;SDS011;8345;50.902;6.956;2023-04-23T02:14:10;16.87;;;15.20;;
16468;SDS011;8345;50.902;6.956;2023-04-23T02:16:37;15.73;;;14.23;;
16468;SDS011;8345;50.902;6.956;2023-04-23T02:19:04;17.07;;;15.47;;
16468;SDS011;8345;50.902;6.956;2023-04-23T02:21:31;17.90;;;16.10;;
16468;SDS011;8345;50.902;6.956;2023-04-23T02:23:59;17.47;;;15.87;;
16468;SDS011;8345;50.902;6.956;2023-04-23T02:26:26;18.27;;;16.20;;
16468;SDS011;8345;50.902;6.956;2023-04-23T02:28:53;17.57;;;15.87;;
16468;SDS011;8345;50.902;6.956;2023-04-23T02:31:22;18.13;;;16.23;;
16468;SDS011;8345;50.902;6.956;2023-04-23T02:33:49;18.60;;;16.70;;
16468;SDS011;8345;50.902;6.956;2023-04-23T02:36:16;19.67;;;17.67;;
16468;SDS011;8345;50.902;6.956;2023-04-23T02:38:43;20.77;;;18.77;;
16468;SDS011;8345;50.902;6.956;2023-04-23T02:41:12;19.40;;;17.60;;
16468;SDS011;8345;50.902;6.956;2023-04-23T02:43:39;20.00;;;18.10;;
16468;SDS011;8345;50.902;6.956;2023-04-23T02:46:07;18.87;;;17.07;;
16468;SDS011;8345;50.902;6.956;2023-04-23T02:48:37;19.70;;;17.80;;
16468;SDS011;8345;50.902;6.956;2023-04-23T02:51:05;20.13;;;18.23;;
16468;SDS011;8345;50.902;6.956;2023-04-23T02:53:32;19.80;;;17.80;;
16468;SDS011;8345;50.902;6.956;2023-04-23T02:56:00;19.03;;;17.17;;
16468;SDS011;8345;50.902;6.956;2023-04-23T02:58:27;19.07;;;17.27;;
16468;SDS011;8345;50.902;6.956;2023-04-23T03:00:54;19.43;;;17.53;;
16468;SDS011;8345;50.902;6.956;2023-04-23T03:03:21;19.13;;;17.23;;
16468;SDS011;8345;50.902;6.956;2023-04-23T03:05:51;19.57;;;17.63;;
16468;SDS011;8345;50.902;6.956;2023-04-23T03:08:19;19.43;;;17.43;;
16468;SDS011;8345;50.902;6.956;2023-04-23T03:10:46;19.47;;;17.57;;
16468;SDS011;8345;50.902;6.956;2023-04-23T03:13:14;19.70;;;17.77;;
16468;SDS011;8345;50.902;6.956;2023-04-23T03:15:41;19.50;;;17.50;;
16468;SDS011;8345;50.902;6.956;2023-04-23T03:18:08;20.50;;;18.30;;
16468;SDS011;8345;50.902;6.956;2023-04-23T03:20:36;20.10;;;18.17;;
16468;SDS011;8345;50.902;6.956;2023-04-23T03:23:04;21.43;;;19.33;;
16468;SDS011;8345;50.902;6.956;2023-04-23T03:25:31;22.13;;;19.93;;
16468;SDS011;8345;50.902;6.956;2023-04-23T03:27:59;21.90;;;19.60;;
16468;SDS011;8345;50.902;6.956;2023-04-23T03:30:26;21.63;;;19.43;;
16468;SDS011;8345;50.902;6.956;2023-04-23T03:32:53;22.43;;;20.23;;
16468;SDS011;8345;50.902;6.956;2023-04-23T03:35:21;22.63;;;20.33;;
16468;SDS011;8345;50.902;6.956;2023-04-23T03:37:48;23.40;;;21.07;;
16468;SDS011;8345;50.902;6.956;2023-04-23T03:40:17;23.57;;;21.27;;
16468;SDS011;8345;50.902;6.956;2023-04-23T03:42:45;22.80;;;20.50;;
16468;SDS011;8345;50.902;6.956;2023-04-23T03:45:13;22.87;;;20.57;;
16468;SDS011;8345;50.902;6.956;2023-04-23T03:47:41;23.50;;;21.07;;
16468;SDS011;8345;50.902;6.956;2023-04-23T03:50:08;24.53;;;22.13;;
16468;SDS011;8345;50.902;6.956;2023-04-23T03:52:37;25.03;;;22.60;;
16468;SDS011;8345;50.902;6.956;2023-04-23T03:55:04;23.47;;;21.07;;
16468;SDS011;8345;50.902;6.956;2023-04-23T03:57:33;25.30;;;22.60;;
16468;SDS011;8345;50.902;6.956;2023-04-23T04:00:01;26.50;;;23.80;;
16468;SDS011;8345;50.902;6.956;2023-04-23T04:02:28;25.93;;;23.33;;
16468;SDS011;8345;50.902;6.956;2023-04-23T04:04:55;24.20;;;21.77;;
16468;SDS011;8345;50.902;6.956;2023-04-23T04:07:22;24.07;;;21.67;;
16468;SDS011;8345;50.902;6.956;2023-04-23T04:09:50;23.70;;;21.40;;
16468;SDS011;8345;50.902;6.956;2023-04-23T04:12:17;25.20;;;22.70;;
16468;SDS011;8345;50.902;6.956;2023-04-23T04:14:45;23.47;;;21.17;;
16468;SDS011;8345;50.902;6.956;2023-04-23T04:17:13;24.47;;;22.00;;
16468;SDS011;8345;50.902;6.956;2023-04-23T04:19:40;24.17;;;21.73;;
16468;SDS011;8345;50.902;6.956;2023-04-23T04:22:07;23.63;;;21.23;;
16468;SDS011;8345;50.902;6.956;2023-04-23T04:24:35;23.23;;;20.70;;
16468;SDS011;8345;50.902;6.956;2023-04-23T04:27:02;23.20;;;20.87;;
16468;SDS011;8345;50.902;6.956;2023-04-23T04:29:30;23.00;;;20.60;;
16468;SDS011;8345;50.902;6.956;2023-04-23T04:31:58;22.13;;;20.10;;
16468;SDS011;8345;50.902;6.956;2023-04-23T04:34:26;21.67;;;19.40;;
16468;SDS011;8345;50.902;6.956;2023-04-23T04:36:54;21.30;;;19.17;;
16468;SDS011;8345;50.902;6.956;2023-04-23T04:39:21;22.23;;;20.13;;
16468;SDS011;8345;50.902;6.956;2023-04-23T04:41:48;20.83;;;18.83;;
16468;SDS011;8345;50.902;6.956;2023-04-23T04:44:16;18.97;;;17.07;;
16468;SDS011;8345;50.902;6.956;2023-04-23T04:46:43;21.27;;;19.07;;
16468;SDS011;8345;50.902;6.956;2023-04-23T04:49:12;20.43;;;18.33;;
16468;SDS011;8345;50.902;6.956;2023-04-23T04:51:39;20.10;;;18.20;;
16468;SDS011;8345;50.902;6.956;2023-04-23T04:54:07;20.50;;;18.50;;
16468;SDS011;8345;50.902;6.956;2023-04-23T04:56:34;19.87;;;17.87;;
16468;SDS011;8345;50.902;6.956;2023-04-23T04:59:01;19.47;;;17.57;;
16468;SDS011;8345;50.902;6.956;2023-04-23T05:01:28;19.37;;;17.47;;
16468;SDS011;8345;50.902;6.956;2023-04-23T05:03:57;20.00;;;18.00;;
16468;SDS011;8345;50.902;6.956;2023-04-23T05:06:26;19.27;;;17.47;;
16468;SDS011;8345;50.902;6.956;2023-04-23T05:08:53;19.20;;;17.30;;
16468;SDS011;8345;50.902;6.956;2023-04-23T05:11:21;17.90;;;16.30;;
16468;SDS011;8345;50.902;6.956;2023-04-23T05:13:48;17.83;;;16.23;;
16468;SDS011;8345;50.902;6.956;2023-04-23T05:16:15;17.43;;;15.83;;
16468;SDS011;8345;50.902;6.956;2023-04-23T05:18:42;18.37;;;16.43;;
16468;SDS011;8345;50.902;6.956;2023-04-23T05:21:11;19.67;;;17.70;;
16468;SDS011;8345;50.902;6.956;2023-04-23T05:23:39;16.77;;;15.13;;
16468;SDS011;8345;50.902;6.956;2023-04-23T05:26:07;18.27;;;16.60;;
16468;SDS011;8345;50.902;6.956;2023-04-23T05:28:34;17.67;;;15.87;;
16468;SDS011;8345;50.902;6.956;2023-04-23T05:31:01;18.03;;;16.40;;
16468;SDS011;8345;50.902;6.956;2023-04-23T05:33:28;17.03;;;15.43;;
16468;SDS011;8345;50.902;6.956;2023-04-23T05:35:56;15.50;;;14.00;;
16468;SDS011;8345;50.902;6.956;2023-04-23T05:38:23;15.77;;;14.27;;
16468;SDS011;8345;50.902;6.956;2023-04-23T05:40:52;15.90;;;14.30;;
16468;SDS011;8345;50.902;6.956;2023-04-23T05:43:19;15.77;;;14.27;;
16468;SDS011;8345;50.902;6.956;2023-04-23T05:45:46;15.33;;;13.93;;
16468;SDS011;8345;50.902;6.956;2023-04-23T05:48:13;14.87;;;13.47;;
16468;SDS011;8345;50.902;6.956;2023-04-23T05:50:41;15.13;;;13.73;;
16468;SDS011;8345;50.902;6.956;2023-04-23T05:53:08;13.50;;;12.20;;
16468;SDS011;8345;50.902;6.956;2023-04-23T05:55:35;13.23;;;12.00;;
16468;SDS011;8345;50.902;6.956;2023-04-23T05:58:04;12.20;;;11.00;;
16468;SDS011;8345;50.902;6.956;2023-04-23T06:00:31;11.47;;;10.37;;
16468;SDS011;8345;50.902;6.956;2023-04-23T06:02:59;11.60;;;10.50;;
16468;SDS011;8345;50.902;6.956;2023-04-23T06:05:26;11.03;;;10.03;;
16468;SDS011;8345;50.902;6.956;2023-04-23T06:07:54;9.23;;;8.43;;
16468;SDS011;8345;50.902;6.956;2023-04-23T06:10:21;9.90;;;9.10;;
16468;SDS011;8345;50.902;6.956;2023-04-23T06:12:48;10.53;;;9.53;;
16468;SDS011;8345;50.902;6.956;2023-04-23T06:15:17;10.17;;;8.60;;
16468;SDS011;8345;50.902;6.956;2023-04-23T06:17:45;10.43;;;9.37;;
16468;SDS011;8345;50.902;6.956;2023-04-23T06:20:12;9.50;;;8.60;;
16468;SDS011;8345;50.902;6.956;2023-04-23T06:22:40;9.03;;;8.33;;
16468;SDS011;8345;50.902;6.956;2023-04-23T06:25:07;8.90;;;8.10;;
16468;SDS011;8345;50.902;6.956;2023-04-23T06:27:35;8.43;;;7.63;;
16468;SDS011;8345;50.902;6.956;2023-04-23T06:30:02;9.23;;;8.43;;
16468;SDS011;8345;50.902;6.956;2023-04-23T06:32:31;9.00;;;8.17;;
16468;SDS011;8345;50.902;6.956;2023-04-23T06:34:58;8.77;;;7.97;;
16468;SDS011;8345;50.902;6.956;2023-04-23T06:37:26;8.57;;;7.87;;
16468;SDS011;8345;50.902;6.956;2023-04-23T06:39:54;8.57;;;7.73;;
16468;SDS011;8345;50.902;6.956;2023-04-23T06:42:22;8.27;;;7.57;;
16468;SDS011;8345;50.902;6.956;2023-04-23T06:44:49;8.20;;;7.50;;
16468;SDS011;8345;50.902;6.956;2023-04-23T06:47:17;8.03;;;7.23;;
16468;SDS011;8345;50.902;6.956;2023-04-23T06:49:46;8.33;;;7.63;;
16468;SDS011;8345;50.902;6.956;2023-04-23T06:52:13;7.63;;;6.90;;
16468;SDS011;8345;50.902;6.956;2023-04-23T06:54:41;7.87;;;7.07;;
16468;SDS011;8345;50.902;6.956;2023-04-23T06:57:08;7.60;;;6.90;;
16468;SDS011;8345;50.902;6.956;2023-04-23T06:59:35;7.27;;;6.57;;
16468;SDS011;8345;50.902;6.956;2023-04-23T07:02:03;6.30;;;5.80;;
16468;SDS011;8345;50.902;6.956;2023-04-23T07:04:30;6.20;;;5.60;;
16468;SDS011;8345;50.902;6.956;2023-04-23T07:06:59;6.20;;;5.70;;
16468;SDS011;8345;50.902;6.956;2023-04-23T07:09:27;5.93;;;5.43;;
16468;SDS011;8345;50.902;6.956;2023-04-23T07:11:55;6.43;;;5.83;;
16468;SDS011;8345;50.902;6.956;2023-04-23T07:14:22;5.60;;;5.13;;
16468;SDS011;8345;50.902;6.956;2023-04-23T07:16:50;5.93;;;5.50;;
16468;SDS011;8345;50.902;6.956;2023-04-23T07:19:18;5.93;;;5.40;;
16468;SDS011;8345;50.902;6.956;2023-04-23T07:21:46;6.77;;;5.13;;
16468;SDS011;8345;50.902;6.956;2023-04-23T07:24:14;4.93;;;4.57;;
16468;SDS011;8345;50.902;6.956;2023-04-23T07:26:44;4.90;;;4.60;;
16468;SDS011;8345;50.902;6.956;2023-04-23T07:29:11;4.83;;;4.43;;
16468;SDS011;8345;50.902;6.956;2023-04-23T07:31:39;6.47;;;5.13;;
16468;SDS011;8345;50.902;6.956;2023-04-23T07:34:07;5.20;;;4.70;;
16468;SDS011;8345;50.902;6.956;2023-04-23T07:36:34;4.83;;;4.43;;
16468;SDS011;8345;50.902;6.956;2023-04-23T07:39:01;4.47;;;4.07;;
16468;SDS011;8345;50.902;6.956;2023-04-23T07:41:31;4.20;;;3.80;;
16468;SDS011;8345;50.902;6.956;2023-04-23T07:43:58;4.43;;;4.00;;
16468;SDS011;8345;50.902;6.956;2023-04-23T07:46:25;3.83;;;3.50;;
16468;SDS011;8345;50.902;6.956;2023-04-23T07:48:52;3.60;;;3.30;;
16468;SDS011;8345;50.902;6.956;2023-04-23T07:51:20;4.53;;;3.43;;
16468;SDS011;8345;50.902;6.956;2023-04-23T07:53:50;4.73;;;4.13;;
16468;SDS011;8345;50.902;6.956;2023-04-23T07:56:18;4.97;;;3.90;;
16468;SDS011;8345;50.902;6.956;2023-04-23T07:58:48;3.90;;;3.60;;
16468;SDS011;8345;50.902;6.956;2023-04-23T08:01:15;4.10;;;3.70;;
16468;SDS011;8345;50.902;6.956;2023-04-23T08:03:42;4.40;;;4.00;;
16468;SDS011;8345;50.902;6.956;2023-04-23T08:06:09;4.07;;;3.63;;
16468;SDS011;8345;50.902;6.956;2023-04-23T08:08:37;5.07;;;3.57;;
16468;SDS011;8345;50.902;6.956;2023-04-23T08:11:04;4.47;;;3.70;;
16468;SDS011;8345;50.902;6.956;2023-04-23T08:13:31;3.73;;;3.43;;
16468;SDS011;8345;50.902;6.956;2023-04-23T08:16:00;4.33;;;3.90;;
16468;SDS011;8345;50.902;6.956;2023-04-23T08:18:27;4.00;;;3.60;;
16468;SDS011;8345;50.902;6.956;2023-04-23T08:20:54;4.57;;;3.50;;
16468;SDS011;8345;50.902;6.956;2023-04-23T08:23:22;5.37;;;3.47;;
16468;SDS011;8345;50.902;6.956;2023-04-23T08:25:49;3.87;;;3.57;;
16468;SDS011;8345;50.902;6.956;2023-04-23T08:28:17;3.83;;;3.43;;
16468;SDS011;8345;50.902;6.956;2023-04-23T08:30:44;7.27;;;3.73;;
16468;SDS011;8345;50.902;6.956;2023-04-23T08:33:13;4.63;;;3.50;;
16468;SDS011;8345;50.902;6.956;2023-04-23T08:35:40;4.57;;;3.80;;
16468;SDS011;8345;50.902;6.956;2023-04-23T08:38:08;5.10;;;2.90;;
16468;SDS011;8345;50.902;6.956;2023-04-23T08:40:35;4.63;;;3.90;;
16468;SDS011;8345;50.902;6.956;2023-04-23T08:43:05;5.13;;;3.27;;
16468;SDS011;8345;50.902;6.956;2023-04-23T08:45:33;3.13;;;2.93;;
16468;SDS011;8345;50.902;6.956;2023-04-23T08:48:05;3.70;;;3.40;;
16468;SDS011;8345;50.902;6.956;2023-04-23T08:50:34;4.33;;;3.07;;
16468;SDS011;8345;50.902;6.956;2023-04-23T08:53:03;4.20;;;3.00;;
16468;SDS011;8345;50.902;6.956;2023-04-23T08:55:31;3.93;;;3.50;;
16468;SDS011;8345;50.902;6.956;2023-04-23T08:57:59;3.97;;;3.10;;
16468;SDS011;8345;50.902;6.956;2023-04-23T09:00:30;3.83;;;3.00;;
16468;SDS011;8345;50.902;6.956;2023-04-23T09:02:58;3.43;;;3.13;;
16468;SDS011;8345;50.902;6.956;2023-04-23T09:05:25;4.50;;;3.07;;
16468;SDS011;8345;50.902;6.956;2023-04-23T09:07:54;4.00;;;2.90;;
16468;SDS011;8345;50.902;6.956;2023-04-23T09:10:22;4.10;;;3.13;;
16468;SDS011;8345;50.902;6.956;2023-04-23T09:12:49;4.37;;;2.97;;
16468;SDS011;8345;50.902;6.956;2023-04-23T09:15:16;5.03;;;2.90;;
16468;SDS011;8345;50.902;6.956;2023-04-23T09:17:44;3.27;;;2.57;;
16468;SDS011;8345;50.902;6.956;2023-04-23T09:20:12;3.93;;;2.47;;
16468;SDS011;8345;50.902;6.956;2023-04-23T09:22:40;3.20;;;2.60;;
16468;SDS011;8345;50.902;6.956;2023-04-23T09:25:09;2.80;;;2.47;;
16468;SDS011;8345;50.902;6.956;2023-04-23T09:27:36;2.23;;;2.03;;
16468;SDS011;8345;50.902;6.956;2023-04-23T09:30:04;3.40;;;2.13;;
16468;SDS011;8345;50.902;6.956;2023-04-23T09:32:33;4.43;;;2.20;;
16468;SDS011;8345;50.902;6.956;2023-04-23T09:35:01;2.40;;;2.20;;
16468;SDS011;8345;50.902;6.956;2023-04-23T09:37:29;3.17;;;2.00;;
16468;SDS011;8345;50.902;6.956;2023-04-23T09:39:59;3.40;;;2.20;;
16468;SDS011;8345;50.902;6.956;2023-04-23T09:42:29;3.20;;;2.30;;
16468;SDS011;8345;50.902;6.956;2023-04-23T09:44:57;2.23;;;1.87;;
16468;SDS011;8345;50.902;6.956;2023-04-23T09:47:25;2.87;;;2.13;;
16468;SDS011;8345;50.902;6.956;2023-04-23T09:49:52;4.60;;;2.00;;
16468;SDS011;8345;50.902;6.956;2023-04-23T09:52:19;1.97;;;1.77;;
16468;SDS011;8345;50.902;6.956;2023-04-23T09:54:46;20.20;;;13.83;;
16468;SDS011;8345;50.902;6.956;2023-04-23T09:57:14;6.97;;;5.97;;
16468;SDS011;8345;50.902;6.956;2023-04-23T09:59:43;5.17;;;4.17;;
16468;SDS011;8345;50.902;6.956;2023-04-23T10:02:10;8.67;;;5.63;;
16468;SDS011;8345;50.902;6.956;2023-04-23T10:04:37;11.80;;;8.93;;
16468;SDS011;8345;50.902;6.956;2023-04-23T10:07:05;6.07;;;4.20;;
16468;SDS011;8345;50.902;6.956;2023-04-23T10:09:38;6.93;;;6.23;;
16468;SDS011;8345;50.902;6.956;2023-04-23T10:12:05;4.83;;;3.40;;
16468;SDS011;8345;50.902;6.956;2023-04-23T10:14:33;4.37;;;3.03;;
16468;SDS011;8345;50.902;6.956;2023-04-23T10:17:02;4.97;;;3.47;;
16468;SDS011;8345;50.902;6.956;2023-04-23T10:19:30;4.03;;;3.20;;
16468;SDS011;8345;50.902;6.956;2023-04-23T10:21:58;4.67;;;2.53;;
16468;SDS011;8345;50.902;6.956;2023-04-23T10:24:31;4.43;;;2.97;;
16468;SDS011;8345;50.902;6.956;2023-04-23T10:26:59;3.50;;;2.83;;
16468;SDS011;8345;50.902;6.956;2023-04-23T10:29:27;2.67;;;2.37;;
16468;SDS011;8345;50.902;6.956;2023-04-23T10:31:55;5.07;;;3.00;;
16468;SDS011;8345;50.902;6.956;2023-04-23T10:34:24;2.83;;;1.97;;
16468;SDS011;8345;50.902;6.956;2023-04-23T10:36:51;4.17;;;2.30;;
16468;SDS011;8345;50.902;6.956;2023-04-23T10:39:19;6.13;;;3.77;;
16468;SDS011;8345;50.902;6.956;2023-04-23T10:41:46;4.13;;;2.23;;
16468;SDS011;8345;50.902;6.956;2023-04-23T10:44:14;4.63;;;2.37;;
16468;SDS011;8345;50.902;6.956;2023-04-23T10:46:49;2.83;;;1.50;;
16468;SDS011;8345;50.902;6.956;2023-04-23T10:49:16;3.07;;;2.10;;
16468;SDS011;8345;50.902;6.956;2023-04-23T10:51:45;2.73;;;2.10;;
16468;SDS011;8345;50.902;6.956;2023-04-23T10:54:14;4.13;;;2.33;;
16468;SDS011;8345;50.902;6.956;2023-04-23T10:56:41;4.60;;;2.40;;
16468;SDS011;8345;50.902;6.956;2023-04-23T10:59:16;3.07;;;2.10;;
16468;SDS011;8345;50.902;6.956;2023-04-23T11:01:45;2.30;;;2.00;;
16468;SDS011;8345;50.902;6.956;2023-04-23T11:04:20;3.13;;;1.93;;
16468;SDS011;8345;50.902;6.956;2023-04-23T11:06:56;2.60;;;1.97;;
16468;SDS011;8345;50.902;6.956;2023-04-23T11:09:30;3.40;;;1.90;;
16468;SDS011;8345;50.902;6.956;2023-04-23T11:11:57;4.67;;;1.77;;
16468;SDS011;8345;50.902;6.956;2023-04-23T11:14:42;3.07;;;2.10;;
16468;SDS011;8345;50.902;6.956;2023-04-23T11:17:13;3.77;;;1.80;;
16468;SDS011;8345;50.902;6.956;2023-04-23T11:19:41;2.50;;;1.50;;
16468;SDS011;8345;50.902;6.956;2023-04-23T11:22:13;2.63;;;1.80;;
16468;SDS011;8345;50.902;6.956;2023-04-23T11:24:43;3.50;;;1.97;;
16468;SDS011;8345;50.902;6.956;2023-04-23T11:27:11;2.80;;;1.63;;
16468;SDS011;8345;50.902;6.956;2023-04-23T11:29:39;2.57;;;1.77;;
16468;SDS011;8345;50.902;6.956;2023-04-23T11:32:07;2.83;;;1.57;;
16468;SDS011;8345;50.902;6.956;2023-04-23T11:34:37;3.90;;;1.90;;
16468;SDS011;8345;50.902;6.956;2023-04-23T11:37:08;2.50;;;1.60;;
16468;SDS011;8345;50.902;6.956;2023-04-23T11:39:37;2.30;;;1.57;;
16468;SDS011;8345;50.902;6.956;2023-04-23T11:42:08;2.50;;;1.60;;
16468;SDS011;8345;50.902;6.956;2023-04-23T11:44:36;3.50;;;1.70;;
16468;SDS011;8345;50.902;6.956;2023-04-23T11:47:03;1.77;;;1.30;;
16468;SDS011;8345;50.902;6.956;2023-04-23T11:49:32;4.00;;;1.70;;
16468;SDS011;8345;50.902;6.956;2023-04-23T11:52:00;2.70;;;1.70;;
16468;SDS011;8345;50.902;6.956;2023-04-23T11:54:27;1.87;;;1.30;;
16468;SDS011;8345;50.902;6.956;2023-04-23T11:56:56;2.53;;;1.87;;
16468;SDS011;8345;50.902;6.956;2023-04-23T11:59:23;2.00;;;1.50;;
16468;SDS011;8345;50.902;6.956;2023-04-23T12:01:52;3.37;;;2.30;;
16468;SDS011;8345;50.902;6.956;2023-04-23T12:04:20;2.80;;;1.83;;
16468;SDS011;8345;50.902;6.956;2023-04-23T12:06:48;4.77;;;1.63;;
16468;SDS011;8345;50.902;6.956;2023-04-23T12:09:16;3.50;;;1.80;;
16468;SDS011;8345;50.902;6.956;2023-04-23T12:11:43;1.30;;;1.20;;
16468;SDS011;8345;50.902;6.956;2023-04-23T12:14:13;4.20;;;2.10;;
16468;SDS011;8345;50.902;6.956;2023-04-23T12:16:40;2.67;;;1.87;;
16468;SDS011;8345;50.902;6.956;2023-04-23T12:19:08;2.97;;;2.07;;
16468;SDS011;8345;50.902;6.956;2023-04-23T12:21:46;2.33;;;2.00;;
16468;SDS011;8345;50.902;6.956;2023-04-23T12:24:13;2.17;;;1.80;;
16468;SDS011;8345;50.902;6.956;2023-04-23T12:26:40;2.67;;;2.03;;
16468;SDS011;8345;50.902;6.956;2023-04-23T12:29:08;4.13;;;2.03;;
16468;SDS011;8345;50.902;6.956;2023-04-23T12:31:36;2.23;;;1.43;;
16468;SDS011;8345;50.902;6.956;2023-04-23T12:34:04;1.97;;;1.50;;
16468;SDS011;8345;50.902;6.956;2023-04-23T12:36:32;2.17;;;1.70;;
16468;SDS011;8345;50.902;6.956;2023-04-23T12:39:18;2.47;;;1.67;;
16468;SDS011;8345;50.902;6.956;2023-04-23T12:41:46;2.40;;;1.53;;
16468;SDS011;8345;50.902;6.956;2023-04-23T12:44:13;4.53;;;2.87;;
16468;SDS011;8345;50.902;6.956;2023-04-23T12:46:42;3.17;;;1.90;;
16468;SDS011;8345;50.902;6.956;2023-04-23T12:49:09;3.23;;;1.40;;
16468;SDS011;8345;50.902;6.956;2023-04-23T12:51:36;1.93;;;1.43;;
16468;SDS011;8345;50.902;6.956;2023-04-23T12:54:03;1.97;;;1.40;;
16468;SDS011;8345;50.902;6.956;2023-04-23T12:58:58;3.43;;;1.60;;
16468;SDS011;8345;50.902;6.956;2023-04-23T13:01:26;2.60;;;1.40;;
16468;SDS011;8345;50.902;6.956;2023-04-23T13:03:55;3.17;;;1.50;;
16468;SDS011;8345;50.902;6.956;2023-04-23T13:06:22;1.43;;;1.30;;
16468;SDS011;8345;50.902;6.956;2023-04-23T13:08:50;2.30;;;1.30;;
16468;SDS011;8345;50.902;6.956;2023-04-23T13:11:19;2.37;;;1.30;;
16468;SDS011;8345;50.902;6.956;2023-04-23T13:13:46;2.33;;;1.23;;
16468;SDS011;8345;50.902;6.956;2023-04-23T13:16:13;2.10;;;1.13;;
16468;SDS011;8345;50.902;6.956;2023-04-23T13:18:40;3.77;;;1.37;;
16468;SDS011;8345;50.902;6.956;2023-04-23T13:21:09;4.13;;;2.70;;
16468;SDS011;8345;50.902;6.956;2023-04-23T13:23:37;3.57;;;2.20;;
16468;SDS011;8345;50.902;6.956;2023-04-23T13:26:04;2.40;;;1.80;;
16468;SDS011;8345;50.902;6.956;2023-04-23T13:28:32;4.03;;;1.60;;
16468;SDS011;8345;50.902;6.956;2023-04-23T13:30:59;2.17;;;1.30;;
16468;SDS011;8345;50.902;6.956;2023-04-23T13:33:27;2.67;;;1.10;;
16468;SDS011;8345;50.902;6.956;2023-04-23T13:35:54;2.40;;;1.43;;
16468;SDS011;8345;50.902;6.956;2023-04-23T13:38:24;3.07;;;1.40;;
16468;SDS011;8345;50.902;6.956;2023-04-23T13:40:51;1.43;;;1.20;;
16468;SDS011;8345;50.902;6.956;2023-04-23T13:43:18;2.77;;;1.50;;
16468;SDS011;8345;50.902;6.956;2023-04-23T13:45:45;2.40;;;1.17;;
16468;SDS011;8345;50.902;6.956;2023-04-23T13:48:13;2.40;;;1.10;;
16468;SDS011;8345;50.902;6.956;2023-04-23T13:50:40;2.40;;;1.30;;
16468;SDS011;8345;50.902;6.956;2023-04-23T13:53:09;2.60;;;1.20;;
16468;SDS011;8345;50.902;6.956;2023-04-23T13:55:37;2.73;;;0.90;;
16468;SDS011;8345;50.902;6.956;2023-04-23T13:58:05;1.87;;;1.07;;
16468;SDS011;8345;50.902;6.956;2023-04-23T14:00:32;1.57;;;1.17;;
16468;SDS011;8345;50.902;6.956;2023-04-23T14:02:59;2.07;;;1.30;;
16468;SDS011;8345;50.902;6.956;2023-04-23T14:05:26;1.93;;;1.13;;
16468;SDS011;8345;50.902;6.956;2023-04-23T14:07:54;3.13;;;1.20;;
16468;SDS011;8345;50.902;6.956;2023-04-23T14:10:21;1.27;;;1.03;;
16468;SDS011;8345;50.902;6.956;2023-04-23T14:12:50;3.63;;;1.10;;
16468;SDS011;8345;50.902;6.956;2023-04-23T14:15:18;1.77;;;1.33;;
16468;SDS011;8345;50.902;6.956;2023-04-23T14:17:45;2.67;;;1.30;;
16468;SDS011;8345;50.902;6.956;2023-04-23T14:20:13;2.93;;;1.40;;
16468;SDS011;8345;50.902;6.956;2023-04-23T14:22:40;3.47;;;1.63;;
16468;SDS011;8345;50.902;6.956;2023-04-23T14:25:08;2.23;;;1.53;;
16468;SDS011;8345;50.902;6.956;2023-04-23T14:27:38;3.00;;;1.60;;
16468;SDS011;8345;50.902;6.956;2023-04-23T14:30:12;1.97;;;1.50;;
16468;SDS011;8345;50.902;6.956;2023-04-23T14:32:40;1.87;;;1.53;;
16468;SDS011;8345;50.902;6.956;2023-04-23T14:35:08;2.70;;;1.60;;
16468;SDS011;8345;50.902;6.956;2023-04-23T14:37:35;1.87;;;1.70;;
16468;SDS011;8345;50.902;6.956;2023-04-23T14:40:03;3.97;;;1.70;;
16468;SDS011;8345;50.902;6.956;2023-04-23T14:42:30;3.13;;;1.80;;
16468;SDS011;8345;50.902;6.956;2023-04-23T14:44:57;1.93;;;1.80;;
16468;SDS011;8345;50.902;6.956;2023-04-23T14:47:26;3.70;;;2.30;;
16468;SDS011;8345;50.902;6.956;2023-04-23T14:49:53;2.10;;;1.87;;
16468;SDS011;8345;50.902;6.956;2023-04-23T14:52:21;4.53;;;2.07;;
16468;SDS011;8345;50.902;6.956;2023-04-23T14:54:48;2.50;;;2.30;;
16468;SDS011;8345;50.902;6.956;2023-04-23T14:57:17;5.77;;;2.07;;